sensor_id;sensor_type;location;lat;lon;timestamp;temperature;humidity
13589;DHT22;6865;52.552;13.434;2022-10-16T00:01:10;15.10;99.90
13589;DHT22;6865;52.552;13.434;2022-10-16T00:03:41;15.10;99.90
13589;DHT22;6865;52.552;13.434;2022-10-16T00:06:09;15.10;99.90
13589;DHT22;6865;52.552;13.434;2022-10-16T00:08:37;15.20;99.90
13589;DHT22;6865;52.552;13.434;2022-10-16T00:11:13;15.20;99.90
13589;DHT22;6865;52.552;13.434;2022-10-16T00:13:41;15.20;99.90
13589;DHT22;6865;52.552;13.434;2022-10-16T00:16:09;15.20;99.90
13589;DHT22;6865;52.552;13.434;2022-10-16T00:18:36;15.30;99.90
13589;DHT22;6865;52.552;13.434;2022-10-16T00:21:12;15.30;99.90
13589;DHT22;6865;52.552;13.434;2022-10-16T00:23:39;15.40;99.90
13589;DHT22;6865;52.552;13.434;2022-10-16T00:26:10;15.20;99.90
13589;DHT22;6865;52.552;13.434;2022-10-16T00:28:37;15.60;99.90
13589;DHT22;6865;52.552;13.434;2022-10-16T00:31:06;15.60;99.90
13589;DHT22;6865;52.552;13.434;2022-10-16T00:33:34;15.60;99.90
13589;DHT22;6865;52.552;13.434;2022-10-16T00:36:03;15.50;99.90
13589;DHT22;6865;52.552;13.434;2022-10-16T00:38:30;15.50;99.90
13589;DHT22;6865;52.552;13.434;2022-10-16T00:40:57;15.40;99.90
13589;DHT22;6865;52.552;13.434;2022-10-16T00:43:40;15.50;99.90
13589;DHT22;6865;52.552;13.434;2022-10-16T00:46:20;15.50;99.90
13589;DHT22;6865;52.552;13.434;2022-10-16T00:48:58;15.60;99.90
13589;DHT22;6865;52.552;13.434;2022-10-16T00:51:34;15.50;99.90
13589;DHT22;6865;52.552;13.434;2022-10-16T00:54:04;15.60;99.90
13589;DHT22;6865;52.552;13.434;2022-10-16T00:56:33;15.60;99.90
13589;DHT22;6865;52.552;13.434;2022-10-16T00:59:03;15.50;99.90
13589;DHT22;6865;52.552;13.434;2022-10-16T01:01:31;15.50;99.90
13589;DHT22;6865;52.552;13.434;2022-10-16T01:03:57;15.60;99.90
13589;DHT22;6865;52.552;13.434;2022-10-16T01:06:47;15.60;99.90
13589;DHT22;6865;52.552;13.434;2022-10-16T01:09:21;15.50;99.90
13589;DHT22;6865;52.552;13.434;2022-10-16T01:12:12;15.50;99.90
13589;DHT22;6865;52.552;13.434;2022-10-16T01:14:47;15.60;99.90
13589;DHT22;6865;52.552;13.434;2022-10-16T01:17:28;15.60;99.90
13589;DHT22;6865;52.552;13.434;2022-10-16T01:20:12;15.50;99.90
13589;DHT22;6865;52.552;13.434;2022-10-16T01:26:07;15.50;99.90
13589;DHT22;6865;52.552;13.434;2022-10-16T01:28:41;15.50;99.90
13589;DHT22;6865;52.552;13.434;2022-10-16T01:31:15;15.50;99.90
13589;DHT22;6865;52.552;13.434;2022-10-16T01:33:46;15.40;99.90
13589;DHT22;6865;52.552;13.434;2022-10-16T01:36:18;15.10;99.90
13589;DHT22;6865;52.552;13.434;2022-10-16T01:38:51;15.40;99.90
13589;DHT22;6865;52.552;13.434;2022-10-16T01:41:23;15.40;99.90
13589;DHT22;6865;52.552;13.434;2022-10-16T01:44:11;15.40;99.90
13589;DHT22;6865;52.552;13.434;2022-10-16T01:46:41;15.40;99.90
13589;DHT22;6865;52.552;13.434;2022-10-16T01:49:09;15.40;99.90
13589;DHT22;6865;52.552;13.434;2022-10-16T01:51:37;15.40;99.90
13589;DHT22;6865;52.552;13.434;2022-10-16T01:54:05;15.50;99.90
13589;DHT22;6865;52.552;13.434;2022-10-16T01:56:34;15.50;99.90
13589;DHT22;6865;52.552;13.434;2022-10-16T01:59:06;15.50;99.90
13589;DHT22;6865;52.552;13.434;2022-10-16T02:01:35;15.40;99.90
13589;DHT22;6865;52.552;13.434;2022-10-16T02:04:17;15.10;99.90
13589;DHT22;6865;52.552;13.434;2022-10-16T02:06:45;15.50;99.90
13589;DHT22;6865;52.552;13.434;2022-10-16T02:09:12;15.50;99.90
13589;DHT22;6865;52.552;13.434;2022-10-16T02:11:38;15.50;99.90
13589;DHT22;6865;52.552;13.434;2022-10-16T02:14:06;15.50;99.90
13589;DHT22;6865;52.552;13.434;2022-10-16T02:16:43;15.50;99.90
13589;DHT22;6865;52.552;13.434;2022-10-16T02:19:11;15.50;99.90
13589;DHT22;6865;52.552;13.434;2022-10-16T02:22:00;15.30;99.90
13589;DHT22;6865;52.552;13.434;2022-10-16T02:25:03;15.50;99.90
13589;DHT22;6865;52.552;13.434;2022-10-16T02:27:46;15.50;99.90
13589;DHT22;6865;52.552;13.434;2022-10-16T02:32:48;15.60;99.90
13589;DHT22;6865;52.552;13.434;2022-10-16T02:35:17;15.60;99.90
13589;DHT22;6865;52.552;13.434;2022-10-16T02:37:46;15.70;99.90
13589;DHT22;6865;52.552;13.434;2022-10-16T02:40:13;15.70;99.90
13589;DHT22;6865;52.552;13.434;2022-10-16T02:42:40;15.70;99.90
13589;DHT22;6865;52.552;13.434;2022-10-16T02:45:09;15.60;99.90
13589;DHT22;6865;52.552;13.434;2022-10-16T02:47:37;15.50;99.90
13589;DHT22;6865;52.552;13.434;2022-10-16T02:50:04;15.50;99.90
13589;DHT22;6865;52.552;13.434;2022-10-16T02:52:30;15.60;99.90
13589;DHT22;6865;52.552;13.434;2022-10-16T02:54:57;15.50;99.90
13589;DHT22;6865;52.552;13.434;2022-10-16T02:57:23;15.50;99.90
13589;DHT22;6865;52.552;13.434;2022-10-16T02:59:51;15.50;99.90
13589;DHT22;6865;52.552;13.434;2022-10-16T03:02:17;15.60;99.90
13589;DHT22;6865;52.552;13.434;2022-10-16T03:04:44;15.60;99.90
13589;DHT22;6865;52.552;13.434;2022-10-16T03:07:10;15.50;99.90
13589;DHT22;6865;52.552;13.434;2022-10-16T03:09:37;15.40;99.90
13589;DHT22;6865;52.552;13.434;2022-10-16T03:12:04;15.40;99.90
13589;DHT22;6865;52.552;13.434;2022-10-16T03:14:30;15.40;99.90
13589;DHT22;6865;52.552;13.434;2022-10-16T03:16:57;15.40;99.90
13589;DHT22;6865;52.552;13.434;2022-10-16T03:19:24;15.40;99.90
13589;DHT22;6865;52.552;13.434;2022-10-16T03:21:51;15.30;99.90
13589;DHT22;6865;52.552;13.434;2022-10-16T03:24:17;15.30;99.90
13589;DHT22;6865;52.552;13.434;2022-10-16T03:26:44;15.20;99.90
13589;DHT22;6865;52.552;13.434;2022-10-16T03:29:10;15.20;99.90
13589;DHT22;6865;52.552;13.434;2022-10-16T03:31:37;15.10;99.90
13589;DHT22;6865;52.552;13.434;2022-10-16T03:34:03;15.10;99.90
13589;DHT22;6865;52.552;13.434;2022-10-16T03:36:30;15.00;99.90
13589;DHT22;6865;52.552;13.434;2022-10-16T03:38:57;14.90;99.90
13589;DHT22;6865;52.552;13.434;2022-10-16T03:41:23;14.80;99.90
13589;DHT22;6865;52.552;13.434;2022-10-16T03:43:50;14.80;99.90
13589;DHT22;6865;52.552;13.434;2022-10-16T03:46:16;14.80;99.90
13589;DHT22;6865;52.552;13.434;2022-10-16T03:48:43;14.80;99.90
13589;DHT22;6865;52.552;13.434;2022-10-16T03:51:10;14.80;99.90
13589;DHT22;6865;52.552;13.434;2022-10-16T03:53:36;15.00;99.90
13589;DHT22;6865;52.552;13.434;2022-10-16T03:56:03;14.90;99.90
13589;DHT22;6865;52.552;13.434;2022-10-16T03:58:29;14.90;99.90
13589;DHT22;6865;52.552;13.434;2022-10-16T04:00:56;14.80;99.90
13589;DHT22;6865;52.552;13.434;2022-10-16T04:03:23;14.90;99.90
13589;DHT22;6865;52.552;13.434;2022-10-16T04:05:50;14.90;99.90
13589;DHT22;6865;52.552;13.434;2022-10-16T04:08:16;14.90;99.90
13589;DHT22;6865;52.552;13.434;2022-10-16T04:10:43;14.90;99.90
13589;DHT22;6865;52.552;13.434;2022-10-16T04:13:10;15.00;99.90
13589;DHT22;6865;52.552;13.434;2022-10-16T04:15:38;14.90;99.90
13589;DHT22;6865;52.552;13.434;2022-10-16T04:18:05;14.90;99.90
13589;DHT22;6865;52.552;13.434;2022-10-16T04:20:32;15.00;99.90
13589;DHT22;6865;52.552;13.434;2022-10-16T04:22:59;14.90;99.90
13589;DHT22;6865;52.552;13.434;2022-10-16T04:25:26;14.90;99.90
13589;DHT22;6865;52.552;13.434;2022-10-16T04:27:53;14.90;99.90
13589;DHT22;6865;52.552;13.434;2022-10-16T04:30:21;14.90;99.90
13589;DHT22;6865;52.552;13.434;2022-10-16T04:32:49;14.90;99.90
13589;DHT22;6865;52.552;13.434;2022-10-16T04:35:17;14.90;99.90
13589;DHT22;6865;52.552;13.434;2022-10-16T04:37:44;14.90;99.90
13589;DHT22;6865;52.552;13.434;2022-10-16T04:40:10;14.60;99.90
13589;DHT22;6865;52.552;13.434;2022-10-16T04:42:37;15.00;99.90
13589;DHT22;6865;52.552;13.434;2022-10-16T04:45:05;15.00;99.90
13589;DHT22;6865;52.552;13.434;2022-10-16T04:47:32;15.00;99.90
13589;DHT22;6865;52.552;13.434;2022-10-16T04:49:59;14.90;99.90
13589;DHT22;6865;52.552;13.434;2022-10-16T04:52:28;14.90;99.90
13589;DHT22;6865;52.552;13.434;2022-10-16T04:54:55;14.90;99.90
13589;DHT22;6865;52.552;13.434;2022-10-16T04:57:26;14.90;99.90
13589;DHT22;6865;52.552;13.434;2022-10-16T04:59:54;14.90;99.90
13589;DHT22;6865;52.552;13.434;2022-10-16T05:02:20;14.90;99.90
13589;DHT22;6865;52.552;13.434;2022-10-16T05:04:47;14.80;99.90
13589;DHT22;6865;52.552;13.434;2022-10-16T05:07:14;14.80;99.90
13589;DHT22;6865;52.552;13.434;2022-10-16T05:09:40;14.80;99.90
13589;DHT22;6865;52.552;13.434;2022-10-16T05:12:07;14.80;99.90
13589;DHT22;6865;52.552;13.434;2022-10-16T05:14:33;14.70;99.90
13589;DHT22;6865;52.552;13.434;2022-10-16T05:17:00;14.70;99.90
13589;DHT22;6865;52.552;13.434;2022-10-16T05:19:27;15.20;99.90
13589;DHT22;6865;52.552;13.434;2022-10-16T05:21:54;14.70;99.90
13589;DHT22;6865;52.552;13.434;2022-10-16T05:24:21;14.70;99.90
13589;DHT22;6865;52.552;13.434;2022-10-16T05:26:48;14.70;99.90
13589;DHT22;6865;52.552;13.434;2022-10-16T05:29:14;14.70;99.90
13589;DHT22;6865;52.552;13.434;2022-10-16T05:31:41;14.70;99.90
13589;DHT22;6865;52.552;13.434;2022-10-16T05:34:07;14.70;99.90
13589;DHT22;6865;52.552;13.434;2022-10-16T05:36:34;14.70;99.90
13589;DHT22;6865;52.552;13.434;2022-10-16T05:39:01;14.70;99.90
13589;DHT22;6865;52.552;13.434;2022-10-16T05:41:28;14.60;99.90
13589;DHT22;6865;52.552;13.434;2022-10-16T05:43:54;14.60;99.90
13589;DHT22;6865;52.552;13.434;2022-10-16T05:46:21;14.60;99.90
13589;DHT22;6865;52.552;13.434;2022-10-16T05:48:48;14.60;99.90
13589;DHT22;6865;52.552;13.434;2022-10-16T05:51:14;14.60;99.90
13589;DHT22;6865;52.552;13.434;2022-10-16T05:53:42;14.60;99.90
13589;DHT22;6865;52.552;13.434;2022-10-16T05:56:10;14.80;99.90
13589;DHT22;6865;52.552;13.434;2022-10-16T05:58:38;14.80;99.90
13589;DHT22;6865;52.552;13.434;2022-10-16T06:01:13;14.80;99.90
13589;DHT22;6865;52.552;13.434;2022-10-16T06:03:40;14.80;99.90
13589;DHT22;6865;52.552;13.434;2022-10-16T06:06:15;14.80;99.90
13589;DHT22;6865;52.552;13.434;2022-10-16T06:08:43;14.80;99.90
13589;DHT22;6865;52.552;13.434;2022-10-16T06:11:15;14.80;99.90
13589;DHT22;6865;52.552;13.434;2022-10-16T06:13:42;14.70;99.90
13589;DHT22;6865;52.552;13.434;2022-10-16T06:16:10;14.90;99.90
13589;DHT22;6865;52.552;13.434;2022-10-16T06:18:37;14.70;99.90
13589;DHT22;6865;52.552;13.434;2022-10-16T06:21:11;14.80;99.90
13589;DHT22;6865;52.552;13.434;2022-10-16T06:23:39;14.80;99.90
13589;DHT22;6865;52.552;13.434;2022-10-16T06:26:11;14.80;99.90
13589;DHT22;6865;52.552;13.434;2022-10-16T06:28:38;14.90;99.90
13589;DHT22;6865;52.552;13.434;2022-10-16T06:31:07;14.90;99.90
13589;DHT22;6865;52.552;13.434;2022-10-16T06:33:34;15.00;99.90
13589;DHT22;6865;52.552;13.434;2022-10-16T06:36:13;15.00;99.90
13589;DHT22;6865;52.552;13.434;2022-10-16T06:38:41;15.10;99.90
13589;DHT22;6865;52.552;13.434;2022-10-16T06:41:11;15.20;99.90
13589;DHT22;6865;52.552;13.434;2022-10-16T06:43:38;15.20;99.90
13589;DHT22;6865;52.552;13.434;2022-10-16T06:46:06;15.20;99.90
13589;DHT22;6865;52.552;13.434;2022-10-16T06:48:36;15.20;99.90
13589;DHT22;6865;52.552;13.434;2022-10-16T06:51:14;15.30;99.90
13589;DHT22;6865;52.552;13.434;2022-10-16T06:53:47;15.30;99.90
13589;DHT22;6865;52.552;13.434;2022-10-16T06:56:28;15.30;99.90
13589;DHT22;6865;52.552;13.434;2022-10-16T06:58:57;15.30;99.90
13589;DHT22;6865;52.552;13.434;2022-10-16T07:01:25;15.50;99.90
13589;DHT22;6865;52.552;13.434;2022-10-16T07:03:52;15.40;99.90
13589;DHT22;6865;52.552;13.434;2022-10-16T07:06:21;15.40;99.90
13589;DHT22;6865;52.552;13.434;2022-10-16T07:08:48;15.60;99.90
13589;DHT22;6865;52.552;13.434;2022-10-16T07:11:20;15.70;99.90
13589;DHT22;6865;52.552;13.434;2022-10-16T07:13:48;15.80;99.90
13589;DHT22;6865;52.552;13.434;2022-10-16T07:16:22;15.80;99.90
13589;DHT22;6865;52.552;13.434;2022-10-16T07:18:49;16.00;99.90
13589;DHT22;6865;52.552;13.434;2022-10-16T07:21:21;16.00;99.90
13589;DHT22;6865;52.552;13.434;2022-10-16T07:23:53;16.10;99.90
13589;DHT22;6865;52.552;13.434;2022-10-16T07:26:20;16.20;99.90
13589;DHT22;6865;52.552;13.434;2022-10-16T07:28:47;16.30;99.90
13589;DHT22;6865;52.552;13.434;2022-10-16T07:31:15;16.30;99.90
13589;DHT22;6865;52.552;13.434;2022-10-16T07:33:43;16.30;99.90
13589;DHT22;6865;52.552;13.434;2022-10-16T07:36:12;16.40;99.90
13589;DHT22;6865;52.552;13.434;2022-10-16T07:38:42;16.40;99.90
13589;DHT22;6865;52.552;13.434;2022-10-16T07:41:14;16.50;99.90
13589;DHT22;6865;52.552;13.434;2022-10-16T07:43:45;16.60;99.90
13589;DHT22;6865;52.552;13.434;2022-10-16T07:46:12;16.60;99.90
13589;DHT22;6865;52.552;13.434;2022-10-16T07:48:39;16.60;99.90
13589;DHT22;6865;52.552;13.434;2022-10-16T07:51:06;16.60;99.90
13589;DHT22;6865;52.552;13.434;2022-10-16T07:53:33;16.70;99.90
13589;DHT22;6865;52.552;13.434;2022-10-16T07:56:04;16.70;99.90
13589;DHT22;6865;52.552;13.434;2022-10-16T07:58:33;16.70;99.90
13589;DHT22;6865;52.552;13.434;2022-10-16T08:01:04;16.80;99.90
13589;DHT22;6865;52.552;13.434;2022-10-16T08:03:31;16.70;99.90
13589;DHT22;6865;52.552;13.434;2022-10-16T08:05:58;16.80;99.90
13589;DHT22;6865;52.552;13.434;2022-10-16T08:08:25;16.80;99.90
13589;DHT22;6865;52.552;13.434;2022-10-16T08:10:53;16.80;99.90
13589;DHT22;6865;52.552;13.434;2022-10-16T08:13:19;16.80;99.90
13589;DHT22;6865;52.552;13.434;2022-10-16T08:15:46;16.80;99.90
13589;DHT22;6865;52.552;13.434;2022-10-16T08:18:14;16.90;99.90
13589;DHT22;6865;52.552;13.434;2022-10-16T08:20:42;16.90;99.90
13589;DHT22;6865;52.552;13.434;2022-10-16T08:23:11;16.90;99.90
13589;DHT22;6865;52.552;13.434;2022-10-16T08:25:38;17.00;99.90
13589;DHT22;6865;52.552;13.434;2022-10-16T08:28:06;17.10;99.90
13589;DHT22;6865;52.552;13.434;2022-10-16T08:30:33;17.00;99.90
13589;DHT22;6865;52.552;13.434;2022-10-16T08:33:00;17.00;99.90
13589;DHT22;6865;52.552;13.434;2022-10-16T08:35:27;17.00;99.90
13589;DHT22;6865;52.552;13.434;2022-10-16T08:37:53;16.90;99.90
13589;DHT22;6865;52.552;13.434;2022-10-16T08:40:27;17.00;99.90
13589;DHT22;6865;52.552;13.434;2022-10-16T08:43:26;17.00;99.90
13589;DHT22;6865;52.552;13.434;2022-10-16T08:48:51;15.30;99.90
13589;DHT22;6865;52.552;13.434;2022-10-16T08:51:26;16.90;99.90
13589;DHT22;6865;52.552;13.434;2022-10-16T08:53:56;16.90;99.90
13589;DHT22;6865;52.552;13.434;2022-10-16T08:56:24;17.20;99.90
13589;DHT22;6865;52.552;13.434;2022-10-16T08:58:52;17.20;99.90
13589;DHT22;6865;52.552;13.434;2022-10-16T09:01:38;17.30;99.90
13589;DHT22;6865;52.552;13.434;2022-10-16T09:04:43;17.30;99.90
13589;DHT22;6865;52.552;13.434;2022-10-16T09:10:20;17.40;99.90
13589;DHT22;6865;52.552;13.434;2022-10-16T09:13:02;17.50;99.90
13589;DHT22;6865;52.552;13.434;2022-10-16T09:15:47;17.50;99.90
13589;DHT22;6865;52.552;13.434;2022-10-16T09:21:28;17.60;99.90
13589;DHT22;6865;52.552;13.434;2022-10-16T09:23:59;17.40;99.90
13589;DHT22;6865;52.552;13.434;2022-10-16T09:26:26;17.80;99.90
13589;DHT22;6865;52.552;13.434;2022-10-16T09:28:53;17.80;99.90
13589;DHT22;6865;52.552;13.434;2022-10-16T09:31:22;17.50;99.90
13589;DHT22;6865;52.552;13.434;2022-10-16T09:33:58;17.70;99.90
13589;DHT22;6865;52.552;13.434;2022-10-16T09:36:27;17.60;99.90
13589;DHT22;6865;52.552;13.434;2022-10-16T09:39:09;17.60;99.90
13589;DHT22;6865;52.552;13.434;2022-10-16T09:41:37;17.50;99.90
13589;DHT22;6865;52.552;13.434;2022-10-16T09:44:26;17.80;99.90
13589;DHT22;6865;52.552;13.434;2022-10-16T09:47:04;17.80;99.90
13589;DHT22;6865;52.552;13.434;2022-10-16T09:49:32;17.90;99.90
13589;DHT22;6865;52.552;13.434;2022-10-16T09:52:06;18.10;99.90
13589;DHT22;6865;52.552;13.434;2022-10-16T09:54:37;18.10;99.90
13589;DHT22;6865;52.552;13.434;2022-10-16T09:57:07;18.00;99.90
13589;DHT22;6865;52.552;13.434;2022-10-16T09:59:47;18.00;99.90
13589;DHT22;6865;52.552;13.434;2022-10-16T10:02:16;18.00;99.90
13589;DHT22;6865;52.552;13.434;2022-10-16T10:04:50;18.00;99.90
13589;DHT22;6865;52.552;13.434;2022-10-16T10:07:42;18.10;99.90
13589;DHT22;6865;52.552;13.434;2022-10-16T10:10:25;18.30;99.90
13589;DHT22;6865;52.552;13.434;2022-10-16T10:12:53;18.40;99.90
13589;DHT22;6865;52.552;13.434;2022-10-16T10:15:20;18.50;99.90
13589;DHT22;6865;52.552;13.434;2022-10-16T10:17:51;18.80;99.90
13589;DHT22;6865;52.552;13.434;2022-10-16T10:20:27;18.60;99.90
13589;DHT22;6865;52.552;13.434;2022-10-16T10:22:55;18.60;99.90
13589;DHT22;6865;52.552;13.434;2022-10-16T10:25:34;18.40;99.90
13589;DHT22;6865;52.552;13.434;2022-10-16T10:31:09;18.40;99.90
13589;DHT22;6865;52.552;13.434;2022-10-16T10:36:26;18.20;99.90
13589;DHT22;6865;52.552;13.434;2022-10-16T10:38:59;18.10;99.90
13589;DHT22;6865;52.552;13.434;2022-10-16T10:44:21;18.10;99.90
13589;DHT22;6865;52.552;13.434;2022-10-16T10:47:05;18.10;99.90
13589;DHT22;6865;52.552;13.434;2022-10-16T10:50:07;18.20;99.90
13589;DHT22;6865;52.552;13.434;2022-10-16T10:58:08;18.60;99.90
13589;DHT22;6865;52.552;13.434;2022-10-16T11:00:57;18.70;99.90
13589;DHT22;6865;52.552;13.434;2022-10-16T11:03:56;18.90;99.90
13589;DHT22;6865;52.552;13.434;2022-10-16T11:06:40;19.10;99.90
13589;DHT22;6865;52.552;13.434;2022-10-16T11:09:24;18.90;99.90
13589;DHT22;6865;52.552;13.434;2022-10-16T11:11:58;19.10;99.90
13589;DHT22;6865;52.552;13.434;2022-10-16T11:14:30;19.00;99.90
13589;DHT22;6865;52.552;13.434;2022-10-16T11:17:10;19.00;99.90
13589;DHT22;6865;52.552;13.434;2022-10-16T11:19:58;18.90;99.90
13589;DHT22;6865;52.552;13.434;2022-10-16T11:22:50;19.00;99.90
13589;DHT22;6865;52.552;13.434;2022-10-16T11:25:29;19.00;99.90
13589;DHT22;6865;52.552;13.434;2022-10-16T11:30:54;19.30;99.90
13589;DHT22;6865;52.552;13.434;2022-10-16T11:33:45;19.30;99.90
13589;DHT22;6865;52.552;13.434;2022-10-16T11:36:23;19.20;99.90
13589;DHT22;6865;52.552;13.434;2022-10-16T11:41:37;18.90;99.90
13589;DHT22;6865;52.552;13.434;2022-10-16T11:47:24;18.70;99.90
13589;DHT22;6865;52.552;13.434;2022-10-16T11:50:37;18.80;99.90
13589;DHT22;6865;52.552;13.434;2022-10-16T11:53:37;18.90;99.90
13589;DHT22;6865;52.552;13.434;2022-10-16T11:56:06;19.10;99.90
13589;DHT22;6865;52.552;13.434;2022-10-16T11:59:02;19.10;99.90
13589;DHT22;6865;52.552;13.434;2022-10-16T12:01:32;19.10;99.90
13589;DHT22;6865;52.552;13.434;2022-10-16T12:06:40;19.00;99.90
13589;DHT22;6865;52.552;13.434;2022-10-16T12:09:25;18.90;99.90
13589;DHT22;6865;52.552;13.434;2022-10-16T12:11:53;18.80;99.90
13589;DHT22;6865;52.552;13.434;2022-10-16T12:14:32;18.70;99.90
13589;DHT22;6865;52.552;13.434;2022-10-16T12:20:00;18.80;99.90
13589;DHT22;6865;52.552;13.434;2022-10-16T12:22:29;20.50;99.90
13589;DHT22;6865;52.552;13.434;2022-10-16T12:24:57;19.10;99.90
13589;DHT22;6865;52.552;13.434;2022-10-16T12:27:31;19.10;99.90
13589;DHT22;6865;52.552;13.434;2022-10-16T12:30:00;19.20;99.90
13589;DHT22;6865;52.552;13.434;2022-10-16T12:32:33;19.30;99.90
13589;DHT22;6865;52.552;13.434;2022-10-16T12:35:25;19.30;99.90
13589;DHT22;6865;52.552;13.434;2022-10-16T12:37:53;19.30;99.90
13589;DHT22;6865;52.552;13.434;2022-10-16T12:40:25;19.30;99.90
13589;DHT22;6865;52.552;13.434;2022-10-16T12:42:53;19.40;99.90
13589;DHT22;6865;52.552;13.434;2022-10-16T12:45:29;19.30;99.90
13589;DHT22;6865;52.552;13.434;2022-10-16T12:47:59;19.30;99.90
13589;DHT22;6865;52.552;13.434;2022-10-16T12:50:32;19.40;99.90
13589;DHT22;6865;52.552;13.434;2022-10-16T12:53:01;19.40;99.90
13589;DHT22;6865;52.552;13.434;2022-10-16T12:55:35;19.50;99.90
13589;DHT22;6865;52.552;13.434;2022-10-16T12:58:51;19.50;99.90
13589;DHT22;6865;52.552;13.434;2022-10-16T13:01:32;19.60;99.90
13589;DHT22;6865;52.552;13.434;2022-10-16T13:04:31;19.60;99.90
13589;DHT22;6865;52.552;13.434;2022-10-16T13:10:11;19.60;99.90
13589;DHT22;6865;52.552;13.434;2022-10-16T13:13:20;19.60;99.90
13589;DHT22;6865;52.552;13.434;2022-10-16T13:19:11;19.90;99.90
13589;DHT22;6865;52.552;13.434;2022-10-16T13:22:05;20.10;99.60
13589;DHT22;6865;52.552;13.434;2022-10-16T13:25:34;20.00;99.80
13589;DHT22;6865;52.552;13.434;2022-10-16T13:27:51;19.80;99.90
13589;DHT22;6865;52.552;13.434;2022-10-16T13:30:25;19.60;99.90
13589;DHT22;6865;52.552;13.434;2022-10-16T13:33:01;19.50;99.90
13589;DHT22;6865;52.552;13.434;2022-10-16T13:35:31;19.40;99.90
13589;DHT22;6865;52.552;13.434;2022-10-16T13:38:20;19.40;99.90
13589;DHT22;6865;52.552;13.434;2022-10-16T13:40:58;19.40;99.90
13589;DHT22;6865;52.552;13.434;2022-10-16T13:43:37;19.30;99.90
13589;DHT22;6865;52.552;13.434;2022-10-16T13:46:06;19.40;99.90
13589;DHT22;6865;52.552;13.434;2022-10-16T13:48:36;19.50;99.90
13589;DHT22;6865;52.552;13.434;2022-10-16T13:51:13;19.50;99.90
13589;DHT22;6865;52.552;13.434;2022-10-16T13:53:40;19.60;99.90
13589;DHT22;6865;52.552;13.434;2022-10-16T13:56:13;19.60;99.90
13589;DHT22;6865;52.552;13.434;2022-10-16T13:58:41;19.60;99.90
13589;DHT22;6865;52.552;13.434;2022-10-16T14:01:23;19.40;99.90
13589;DHT22;6865;52.552;13.434;2022-10-16T14:04:15;19.60;99.90
13589;DHT22;6865;52.552;13.434;2022-10-16T14:06:45;19.60;99.90
13589;DHT22;6865;52.552;13.434;2022-10-16T14:11:48;19.60;99.90
13589;DHT22;6865;52.552;13.434;2022-10-16T14:14:19;19.60;99.90
13589;DHT22;6865;52.552;13.434;2022-10-16T14:16:46;19.70;99.00
13589;DHT22;6865;52.552;13.434;2022-10-16T14:19:22;19.70;99.10
13589;DHT22;6865;52.552;13.434;2022-10-16T14:21:51;19.60;99.10
13589;DHT22;6865;52.552;13.434;2022-10-16T14:26:57;19.50;99.30
13589;DHT22;6865;52.552;13.434;2022-10-16T14:29:26;19.60;99.40
13589;DHT22;6865;52.552;13.434;2022-10-16T14:32:04;19.70;99.40
13589;DHT22;6865;52.552;13.434;2022-10-16T14:34:34;19.70;99.40
13589;DHT22;6865;52.552;13.434;2022-10-16T14:37:06;19.80;99.00
13589;DHT22;6865;52.552;13.434;2022-10-16T14:39:40;19.90;98.90
13589;DHT22;6865;52.552;13.434;2022-10-16T14:42:17;19.70;99.20
13589;DHT22;6865;52.552;13.434;2022-10-16T14:44:46;19.60;99.50
13589;DHT22;6865;52.552;13.434;2022-10-16T14:47:16;19.50;99.80
13589;DHT22;6865;52.552;13.434;2022-10-16T14:49:43;19.40;99.90
13589;DHT22;6865;52.552;13.434;2022-10-16T14:52:11;19.40;99.90
13589;DHT22;6865;52.552;13.434;2022-10-16T14:54:38;19.30;99.90
13589;DHT22;6865;52.552;13.434;2022-10-16T14:57:05;19.30;99.90
13589;DHT22;6865;52.552;13.434;2022-10-16T14:59:36;19.30;99.90
13589;DHT22;6865;52.552;13.434;2022-10-16T15:02:27;19.30;99.90
13589;DHT22;6865;52.552;13.434;2022-10-16T15:04:55;19.20;99.90
13589;DHT22;6865;52.552;13.434;2022-10-16T15:07:22;19.10;99.90
13589;DHT22;6865;52.552;13.434;2022-10-16T15:09:50;19.10;99.90
13589;DHT22;6865;52.552;13.434;2022-10-16T15:12:18;19.10;99.90
13589;DHT22;6865;52.552;13.434;2022-10-16T15:14:44;19.00;99.90
13589;DHT22;6865;52.552;13.434;2022-10-16T15:17:11;19.00;99.90
13589;DHT22;6865;52.552;13.434;2022-10-16T15:19:38;19.00;99.90
13589;DHT22;6865;52.552;13.434;2022-10-16T15:22:04;18.90;99.90
13589;DHT22;6865;52.552;13.434;2022-10-16T15:24:31;18.90;99.90
13589;DHT22;6865;52.552;13.434;2022-10-16T15:26:57;18.80;99.90
13589;DHT22;6865;52.552;13.434;2022-10-16T15:29:24;18.70;99.90
13589;DHT22;6865;52.552;13.434;2022-10-16T15:31:51;18.60;99.90
13589;DHT22;6865;52.552;13.434;2022-10-16T15:34:17;18.70;99.90
13589;DHT22;6865;52.552;13.434;2022-10-16T15:36:45;18.70;99.90
13589;DHT22;6865;52.552;13.434;2022-10-16T15:39:14;18.60;99.90
13589;DHT22;6865;52.552;13.434;2022-10-16T15:41:42;18.50;99.90
13589;DHT22;6865;52.552;13.434;2022-10-16T15:44:09;18.40;99.90
13589;DHT22;6865;52.552;13.434;2022-10-16T15:46:35;18.40;99.90
13589;DHT22;6865;52.552;13.434;2022-10-16T15:49:03;18.30;99.90
13589;DHT22;6865;52.552;13.434;2022-10-16T15:51:30;18.10;99.90
13589;DHT22;6865;52.552;13.434;2022-10-16T15:53:59;18.00;99.90
13589;DHT22;6865;52.552;13.434;2022-10-16T15:56:28;17.90;99.90
13589;DHT22;6865;52.552;13.434;2022-10-16T15:58:55;17.80;99.90
13589;DHT22;6865;52.552;13.434;2022-10-16T16:01:23;17.80;99.90
13589;DHT22;6865;52.552;13.434;2022-10-16T16:03:53;17.80;99.90
13589;DHT22;6865;52.552;13.434;2022-10-16T16:06:20;17.70;99.90
13589;DHT22;6865;52.552;13.434;2022-10-16T16:08:47;17.60;99.90
13589;DHT22;6865;52.552;13.434;2022-10-16T16:11:15;17.50;99.90
13589;DHT22;6865;52.552;13.434;2022-10-16T16:13:42;17.40;99.90
13589;DHT22;6865;52.552;13.434;2022-10-16T16:16:12;17.30;99.90
13589;DHT22;6865;52.552;13.434;2022-10-16T16:18:39;17.10;99.90
13589;DHT22;6865;52.552;13.434;2022-10-16T16:21:06;17.00;99.90
13589;DHT22;6865;52.552;13.434;2022-10-16T16:23:33;16.90;99.90
13589;DHT22;6865;52.552;13.434;2022-10-16T16:26:23;16.80;99.90
13589;DHT22;6865;52.552;13.434;2022-10-16T16:28:54;16.70;99.90
13589;DHT22;6865;52.552;13.434;2022-10-16T16:31:24;16.60;99.90
13589;DHT22;6865;52.552;13.434;2022-10-16T16:33:51;16.50;99.90
13589;DHT22;6865;52.552;13.434;2022-10-16T16:36:18;16.70;99.90
13589;DHT22;6865;52.552;13.434;2022-10-16T16:38:45;16.50;99.90
13589;DHT22;6865;52.552;13.434;2022-10-16T16:41:23;16.40;99.90
13589;DHT22;6865;52.552;13.434;2022-10-16T16:43:52;16.60;99.90
13589;DHT22;6865;52.552;13.434;2022-10-16T16:46:20;16.60;99.90
13589;DHT22;6865;52.552;13.434;2022-10-16T16:48:48;16.60;99.90
13589;DHT22;6865;52.552;13.434;2022-10-16T16:51:17;16.50;99.90
13589;DHT22;6865;52.552;13.434;2022-10-16T16:53:50;16.50;99.90